This is the latest recevied weather packets stored in our database for station/object VE3DVC. If no packets are shown the sender has not sent any weather packets the latest 10 day(s).
| Time | Temp. | Humidity | Pressure | Rain* | Wind** | Luminosity | Snow |
|---|---|---|---|---|---|---|---|
| 1778015801 | 10° C | 90% | 1007.6 hPa | 0 mm | - | - | - |
| 1778015081 | 10° C | 90% | 1007.6 hPa | 0 mm | - | - | - |
| 1778014017 | 10.56° C | 88% | 1007.6 hPa | 0 mm | - | - | - |
| 1778013296 | 11.11° C | 86% | 1007.6 hPa | 0 mm | - | - | - |
| 1778012242 | 12.22° C | 82% | 1007.2 hPa | 0 mm | - | - | - |
| 1778011522 | 13.89° C | 78% | 1006.7 hPa | 0 mm | - | - | - |
| 1778010801 | 15° C | 77% | 1006.7 hPa | 0 mm | - | - | - |
| 1778010081 | 15° C | 76% | 1006.3 hPa | 0 mm | - | - | - |
| 1778009361 | 15.56° C | 78% | 1006.3 hPa | 0 mm | - | - | - |
| 1778008641 | 15.56° C | 78% | 1006 hPa | 0 mm | - | - | - |
| 1778007571 | 15.56° C | 75% | 1005.8 hPa | 0 mm | - | - | - |
| 1778006851 | 15.56° C | 75% | 1006.2 hPa | 0 mm | - | - | - |
| 1778006131 | 16.11° C | 74% | 1006.1 hPa | 0 mm | - | - | - |
| 1778005411 | 16.11° C | 74% | 1006 hPa | 0 mm | - | - | - |
| 1778004201 | 16.67° C | 73% | 1006.1 hPa | 0 mm | - | - | - |
| 1778001771 | 16.11° C | 75% | 1005.3 hPa | 0 mm | - | - | - |
| 1778001050 | 16.11° C | 76% | 1005.1 hPa | 0 mm | - | - | - |
| 1778000331 | 16.11° C | 79% | 1005.2 hPa | 0 mm | - | - | - |
| 1777999610 | 15.56° C | 81% | 1005.3 hPa | 0 mm | - | - | - |
| 1777998890 | 15° C | 82% | 1005.3 hPa | 0 mm | - | - | - |
| 1777998170 | 15° C | 83% | 1005.4 hPa | 0 mm | - | - | - |
| 1777997451 | 15.56° C | 82% | 1005.5 hPa | 0 mm | - | - | - |
| 1777996730 | 16.11° C | 80% | 1005.4 hPa | 0 mm | - | - | - |
| 1777996011 | 16.67° C | 80% | 1005.1 hPa | 0 mm | - | - | - |
| 1777995291 | 16.67° C | 80% | 1004.5 hPa | 0 mm | - | - | - |
* Rain latest hour (hover to see other rain measurements)
** Current wind speed in m/s (hover to see current wind gust speed)